Time;durP1;ratioP1;P1;durP2;ratioP2;P2;SDS_P1;SDS_P2;PMS_P1;PMS_P2;Temp;Humidity;BMP_temperature;BMP_pressure;BME280_temperature;BME280_humidity;BME280_pressure;Samples;Min_cycle;Max_cycle;Signal;HPM_P1;HPM_P2
2022/04/20 00:02:07;;;;;;;97.57;13.57;;;;;;;;;;4968823;28;20210;-52
2022/04/20 00:04:33;;;;;;;53.33;7.70;;;;;;;;;;4966665;28;20742;-52
2022/04/20 00:06:59;;;;;;;104.07;14.30;;;;;;;;;;4963685;28;20404;-51
2022/04/20 00:09:25;;;;;;;89.70;12.40;;;;;;;;;;4964812;28;20460;-52
2022/04/20 00:11:51;;;;;;;83.33;11.67;;;;;;;;;;4970055;28;20207;-52
2022/04/20 00:14:17;;;;;;;127.80;17.60;;;;;;;;;;4966473;28;20236;-52
2022/04/20 00:16:43;;;;;;;48.87;7.13;;;;;;;;;;4968872;28;20268;-52
2022/04/20 00:19:09;;;;;;;106.97;14.87;;;;;;;;;;4962693;28;20267;-52
2022/04/20 00:21:35;;;;;;;52.87;7.63;;;;;;;;;;4960689;28;20252;-52
2022/04/20 00:24:01;;;;;;;75.53;10.57;;;;;;;;;;4968169;28;20225;-52
2022/04/20 00:26:27;;;;;;;71.33;10.30;;;;;;;;;;4968385;28;20559;-52
2022/04/20 00:28:53;;;;;;;90.70;12.50;;;;;;;;;;4964994;28;20601;-52
2022/04/20 00:31:19;;;;;;;105.17;14.37;;;;;;;;;;4963035;28;20800;-52
2022/04/20 00:33:45;;;;;;;117.17;16.17;;;;;;;;;;4960802;28;20214;-52
2022/04/20 00:36:11;;;;;;;118.13;16.27;;;;;;;;;;4967884;28;20229;-52
2022/04/20 00:38:37;;;;;;;71.00;10.23;;;;;;;;;;4963381;28;20182;-52
2022/04/20 00:41:03;;;;;;;47.87;7.00;;;;;;;;;;4974183;28;20209;-52
2022/04/20 00:43:29;;;;;;;57.17;8.30;;;;;;;;;;4962543;28;20221;-52
2022/04/20 00:45:56;;;;;;;118.20;16.27;;;;;;;;;;4959737;28;20209;-52
2022/04/20 00:48:22;;;;;;;82.50;11.83;;;;;;;;;;4966840;28;20714;-52
2022/04/20 00:50:48;;;;;;;96.00;16.77;;;;;;;;;;4960260;28;22246;-52
2022/04/20 00:53:14;;;;;;;125.13;26.00;;;;;;;;;;4968778;28;20486;-52
2022/04/20 00:55:40;;;;;;;153.57;28.33;;;;;;;;;;4964129;28;20275;-52
2022/04/20 00:58:06;;;;;;;89.00;16.87;;;;;;;;;;4966650;28;20273;-52
2022/04/20 01:00:32;;;;;;;123.70;22.43;;;;;;;;;;4967562;28;20209;-52
2022/04/20 01:02:58;;;;;;;137.13;24.60;;;;;;;;;;4961524;28;20629;-52
2022/04/20 01:05:24;;;;;;;160.03;29.87;;;;;;;;;;4970472;28;20646;-52
2022/04/20 01:07:50;;;;;;;95.97;16.77;;;;;;;;;;4970462;28;20189;-52
2022/04/20 01:10:16;;;;;;;62.60;11.60;;;;;;;;;;4970273;28;20220;-52
2022/04/20 01:12:44;;;;;;;94.70;16.93;;;;;;;;;;4971748;28;20581;-52
2022/04/20 01:15:12;;;;;;;100.00;17.73;;;;;;;;;;4973755;28;20335;-52
2022/04/20 01:17:38;;;;;;;97.43;18.37;;;;;;;;;;4967569;28;20282;-52
2022/04/20 01:20:04;;;;;;;122.93;21.33;;;;;;;;;;4965293;28;20595;-52
2022/04/20 01:22:30;;;;;;;63.77;11.60;;;;;;;;;;4967700;28;20274;-52
2022/04/20 01:24:56;;;;;;;110.77;20.47;;;;;;;;;;4969010;28;20221;-52
2022/04/20 01:27:24;;;;;;;110.53;19.97;;;;;;;;;;4968352;28;20248;-52
2022/04/20 01:29:49;;;;;;;163.23;29.10;;;;;;;;;;4966056;28;20717;-52
2022/04/20 01:32:15;;;;;;;141.33;25.77;;;;;;;;;;4963875;28;20190;-52
2022/04/20 01:34:41;;;;;;;108.73;20.40;;;;;;;;;;4966195;28;20240;-52
2022/04/20 01:37:07;;;;;;;111.20;20.70;;;;;;;;;;4965226;28;20217;-52
2022/04/20 01:39:33;;;;;;;79.70;14.60;;;;;;;;;;4976501;28;20224;-52
2022/04/20 01:41:59;;;;;;;80.03;14.83;;;;;;;;;;4970761;28;20280;-52
2022/04/20 01:44:25;;;;;;;65.67;12.57;;;;;;;;;;4965644;28;20181;-52
2022/04/20 01:46:51;;;;;;;87.67;16.00;;;;;;;;;;4965869;28;20233;-52
2022/04/20 01:49:17;;;;;;;83.03;15.90;;;;;;;;;;4971545;28;20392;-52
2022/04/20 01:51:52;;;;;;;134.33;24.07;;;;;;;;;;4971582;28;20217;-52
2022/04/20 01:54:22;;;;;;;106.83;19.50;;;;;;;;;;4965272;28;20225;-52
2022/04/20 01:56:48;;;;;;;89.17;16.60;;;;;;;;;;4968113;28;20209;-52
2022/04/20 01:59:15;;;;;;;114.30;21.23;;;;;;;;;;4965335;28;20185;-52
2022/04/20 02:04:26;;;;;;;93.43;16.47;;;;;;;;;;4963419;28;20265;-52
2022/04/20 02:06:52;;;;;;;149.73;26.47;;;;;;;;;;4960039;28;20299;-52
2022/04/20 02:09:18;;;;;;;177.50;30.80;;;;;;;;;;4965374;28;20312;-52
2022/04/20 02:11:44;;;;;;;61.93;11.13;;;;;;;;;;4966785;28;20213;-52
2022/04/20 02:14:10;;;;;;;169.97;29.00;;;;;;;;;;4965729;28;20182;-52
2022/04/20 02:16:37;;;;;;;74.70;13.77;;;;;;;;;;4964628;28;20240;-52
2022/04/20 02:19:03;;;;;;;167.97;29.40;;;;;;;;;;4963424;28;20304;-52
2022/04/20 02:21:29;;;;;;;124.13;21.27;;;;;;;;;;4961627;28;20662;-52
2022/04/20 02:23:55;;;;;;;81.93;14.70;;;;;;;;;;4972295;28;20297;-52
2022/04/20 02:26:21;;;;;;;151.27;26.30;;;;;;;;;;4965157;28;20282;-52
2022/04/20 02:28:47;;;;;;;130.77;22.63;;;;;;;;;;4969510;28;20277;-51
2022/04/20 02:31:14;;;;;;;101.30;18.07;;;;;;;;;;4967223;28;20733;-52
2022/04/20 02:33:40;;;;;;;145.57;25.30;;;;;;;;;;4965409;28;20589;-52
2022/04/20 02:36:06;;;;;;;137.83;23.77;;;;;;;;;;4965811;28;20229;-52
2022/04/20 02:38:32;;;;;;;62.63;11.53;;;;;;;;;;4961454;28;20639;-52
2022/04/20 02:40:58;;;;;;;48.63;8.67;;;;;;;;;;4972142;28;20226;-52
2022/04/20 02:43:24;;;;;;;87.70;15.57;;;;;;;;;;4966963;28;20719;-52
2022/04/20 02:45:50;;;;;;;46.90;8.70;;;;;;;;;;4971106;28;20300;-52
2022/04/20 02:48:16;;;;;;;112.67;19.67;;;;;;;;;;4967797;28;20422;-52
2022/04/20 02:50:43;;;;;;;173.87;30.40;;;;;;;;;;4963442;28;20627;-52
2022/04/20 02:53:09;;;;;;;130.17;22.27;;;;;;;;;;4967236;28;20189;-51
2022/04/20 02:55:35;;;;;;;69.17;12.77;;;;;;;;;;4968316;28;20559;-52
2022/04/20 02:58:01;;;;;;;137.10;23.40;;;;;;;;;;4968827;28;20244;-52
2022/04/20 03:00:27;;;;;;;61.60;11.60;;;;;;;;;;4966787;28;20307;-51
2022/04/20 03:02:53;;;;;;;135.93;24.13;;;;;;;;;;4974803;28;20337;-52
2022/04/20 03:05:19;;;;;;;137.70;23.30;;;;;;;;;;4966197;28;20700;-52
2022/04/20 03:07:44;;;;;;;93.23;16.23;;;;;;;;;;4965181;28;20214;-52
2022/04/20 03:10:10;;;;;;;123.63;20.57;;;;;;;;;;4973097;28;20214;-52
2022/04/20 03:12:36;;;;;;;103.37;17.47;;;;;;;;;;4971330;28;20721;-52
2022/04/20 03:15:02;;;;;;;142.77;23.83;;;;;;;;;;4970661;28;20217;-52
2022/04/20 03:17:28;;;;;;;95.60;16.23;;;;;;;;;;4972067;28;20210;-52
2022/04/20 03:19:54;;;;;;;60.67;10.93;;;;;;;;;;4985223;28;20284;-51
2022/04/20 03:22:21;;;;;;;125.40;21.63;;;;;;;;;;4960994;28;20229;-52
2022/04/20 03:24:47;;;;;;;120.67;19.70;;;;;;;;;;4963960;28;20355;-52
2022/04/20 03:27:13;;;;;;;139.40;22.93;;;;;;;;;;4964699;28;20221;-51
2022/04/20 03:29:41;;;;;;;160.87;26.00;;;;;;;;;;4963229;28;20229;-52
2022/04/20 03:32:11;;;;;;;119.80;19.23;;;;;;;;;;4963743;28;20193;-52
2022/04/20 03:34:37;;;;;;;119.43;19.10;;;;;;;;;;4968235;28;20218;-51
2022/04/20 03:37:05;;;;;;;79.20;12.93;;;;;;;;;;4964719;28;20452;-52
2022/04/20 03:39:31;;;;;;;80.77;13.67;;;;;;;;;;4969904;28;20284;-51
2022/04/20 03:41:57;;;;;;;72.23;11.73;;;;;;;;;;4964793;28;20230;-52
2022/04/20 03:44:23;;;;;;;115.90;18.73;;;;;;;;;;4968748;28;20247;-52
2022/04/20 03:46:49;;;;;;;91.93;15.10;;;;;;;;;;4965048;28;20229;-52
2022/04/20 03:49:15;;;;;;;80.47;13.43;;;;;;;;;;4965652;28;20728;-52
2022/04/20 03:51:41;;;;;;;122.83;19.30;;;;;;;;;;4963995;28;20587;-52
2022/04/20 03:54:07;;;;;;;93.07;15.27;;;;;;;;;;4966774;28;20229;-52
2022/04/20 03:57:03;;;;;;;105.53;17.13;;;;;;;;;;4967177;28;20863;-52
2022/04/20 03:59:18;;;;;;;137.43;22.43;;;;;;;;;;4960748;28;20304;-52
2022/04/20 04:01:44;;;;;;;37.40;6.83;;;;;;;;;;4967713;28;20228;-52
2022/04/20 04:04:11;;;;;;;163.27;25.43;;;;;;;;;;4963107;28;20308;-52
2022/04/20 04:06:37;;;;;;;117.33;18.83;;;;;;;;;;4964467;28;20222;-51
2022/04/20 04:09:02;;;;;;;109.00;16.97;;;;;;;;;;4969958;28;20301;-52
2022/04/20 04:11:28;;;;;;;97.70;16.23;;;;;;;;;;4970588;28;20642;-52
2022/04/20 04:13:54;;;;;;;43.00;7.30;;;;;;;;;;4963996;28;20218;-52
2022/04/20 04:16:20;;;;;;;60.80;10.33;;;;;;;;;;4963169;28;20252;-52
2022/04/20 04:18:46;;;;;;;144.70;22.90;;;;;;;;;;4963589;28;20214;-51
2022/04/20 04:21:12;;;;;;;152.47;24.43;;;;;;;;;;4959495;28;20235;-52
2022/04/20 04:23:38;;;;;;;78.10;12.97;;;;;;;;;;4960201;28;20662;-52
2022/04/20 04:26:04;;;;;;;97.27;15.67;;;;;;;;;;4963628;28;20271;-51
2022/04/20 04:28:30;;;;;;;142.73;22.33;;;;;;;;;;4962047;28;20304;-52
2022/04/20 04:30:56;;;;;;;103.53;16.20;;;;;;;;;;4975087;28;20363;-51
2022/04/20 04:33:22;;;;;;;145.37;23.03;;;;;;;;;;4967089;28;20332;-52
2022/04/20 04:35:48;;;;;;;171.17;26.27;;;;;;;;;;4965335;28;20744;-52
2022/04/20 04:38:15;;;;;;;75.77;12.40;;;;;;;;;;4966583;28;20727;-51
2022/04/20 04:40:41;;;;;;;83.37;13.80;;;;;;;;;;4967057;28;20698;-52
2022/04/20 04:43:07;;;;;;;73.37;12.30;;;;;;;;;;4977047;28;20288;-52
2022/04/20 04:48:36;;;;;;;90.03;14.60;;;;;;;;;;4968633;28;21113;-51
2022/04/20 04:51:03;;;;;;;46.60;7.60;;;;;;;;;;4969497;28;20669;-52
2022/04/20 04:53:29;;;;;;;143.17;22.17;;;;;;;;;;4964397;28;20194;-51
2022/04/20 04:55:55;;;;;;;58.57;9.63;;;;;;;;;;4964899;28;20224;-52
2022/04/20 04:58:21;;;;;;;97.60;15.80;;;;;;;;;;4961857;28;20606;-52
2022/04/20 05:00:48;;;;;;;89.73;14.63;;;;;;;;;;4964124;28;20229;-52
2022/04/20 05:03:17;;;;;;;115.27;18.17;;;;;;;;;;4966082;28;20248;-51
2022/04/20 05:05:45;;;;;;;118.47;18.20;;;;;;;;;;4957068;28;20222;-52
2022/04/20 05:08:11;;;;;;;79.37;12.67;;;;;;;;;;4966973;28;20191;-52
2022/04/20 05:10:37;;;;;;;113.43;18.13;;;;;;;;;;4959244;28;20666;-52
2022/04/20 05:13:04;;;;;;;77.70;12.60;;;;;;;;;;4975280;28;20222;-51
2022/04/20 05:15:30;;;;;;;53.13;9.07;;;;;;;;;;4962646;28;20224;-52
2022/04/20 05:17:56;;;;;;;106.37;17.17;;;;;;;;;;4969753;28;20582;-51
2022/04/20 05:20:22;;;;;;;167.87;26.37;;;;;;;;;;4968611;28;20186;-52
2022/04/20 05:22:48;;;;;;;89.60;14.37;;;;;;;;;;4965075;28;20567;-52
2022/04/20 05:25:15;;;;;;;129.10;20.53;;;;;;;;;;4959941;28;20850;-52
2022/04/20 05:27:41;;;;;;;50.00;8.53;;;;;;;;;;4966067;28;20452;-52
2022/04/20 05:30:08;;;;;;;56.93;9.37;;;;;;;;;;4969172;28;20734;-52
2022/04/20 05:32:34;;;;;;;94.17;15.33;;;;;;;;;;4975088;28;20175;-53
2022/04/20 05:35:01;;;;;;;65.40;10.73;;;;;;;;;;4986034;28;20217;-54
2022/04/20 05:43:01;;;;;;;52.40;8.93;;;;;;;;;;4965145;28;20742;-54
2022/04/20 05:45:27;;;;;;;87.90;14.33;;;;;;;;;;4983281;28;20221;-53
2022/04/20 05:47:53;;;;;;;72.20;11.83;;;;;;;;;;4978621;28;20220;-54
2022/04/20 05:50:19;;;;;;;78.17;12.67;;;;;;;;;;4984189;28;20189;-53
2022/04/20 05:52:45;;;;;;;60.30;9.97;;;;;;;;;;4983110;28;20770;-52
2022/04/20 05:55:11;;;;;;;85.67;14.13;;;;;;;;;;4975859;28;20218;-54
2022/04/20 05:57:37;;;;;;;63.83;10.80;;;;;;;;;;4981010;28;20298;-53
2022/04/20 06:00:05;;;;;;;73.83;12.23;;;;;;;;;;4981866;28;20681;-53
2022/04/20 06:02:33;;;;;;;104.70;16.73;;;;;;;;;;4979532;28;20639;-54
2022/04/20 06:04:59;;;;;;;115.13;18.37;;;;;;;;;;4978285;28;20352;-54
2022/04/20 06:07:26;;;;;;;81.00;13.30;;;;;;;;;;4978785;28;20252;-54
2022/04/20 06:09:52;;;;;;;123.80;19.10;;;;;;;;;;4976545;28;20337;-53
2022/04/20 06:12:18;;;;;;;82.67;13.67;;;;;;;;;;4982447;28;20304;-54
2022/04/20 06:14:44;;;;;;;94.50;15.03;;;;;;;;;;4977154;28;20209;-53
2022/04/20 06:17:10;;;;;;;56.27;9.47;;;;;;;;;;4988612;28;20312;-54
2022/04/20 06:19:36;;;;;;;70.37;11.50;;;;;;;;;;4990995;28;20284;-53
2022/04/20 06:22:02;;;;;;;116.03;18.37;;;;;;;;;;4975650;28;20585;-53
2022/04/20 06:24:28;;;;;;;78.30;12.83;;;;;;;;;;4982589;28;20264;-53
2022/04/20 06:26:54;;;;;;;55.83;9.07;;;;;;;;;;4984492;28;20229;-53
2022/04/20 06:29:20;;;;;;;38.30;6.87;;;;;;;;;;4971256;28;20184;-53
2022/04/20 06:31:46;;;;;;;51.93;8.53;;;;;;;;;;4985916;28;20221;-53
2022/04/20 06:34:12;;;;;;;39.57;6.77;;;;;;;;;;4986066;28;20381;-53
2022/04/20 06:36:38;;;;;;;43.43;7.47;;;;;;;;;;4989196;28;20221;-53
2022/04/20 06:39:04;;;;;;;46.93;8.30;;;;;;;;;;4986661;28;20218;-53
2022/04/20 06:41:30;;;;;;;80.33;13.07;;;;;;;;;;4991851;28;20216;-53
2022/04/20 06:43:57;;;;;;;49.63;8.57;;;;;;;;;;4984321;28;20577;-53
2022/04/20 06:46:23;;;;;;;33.90;6.10;;;;;;;;;;4988879;28;20252;-53
2022/04/20 06:48:49;;;;;;;80.73;13.27;;;;;;;;;;4990384;28;20256;-53
2022/04/20 06:51:15;;;;;;;89.87;14.50;;;;;;;;;;4980013;28;20228;-53
2022/04/20 06:59:10;;;;;;;71.23;11.33;;;;;;;;;;4988278;28;20635;-53
2022/04/20 07:01:36;;;;;;;208.80;30.40;;;;;;;;;;4970154;28;20230;-54
2022/04/20 07:04:02;;;;;;;153.53;22.60;;;;;;;;;;4969862;28;20218;-57
2022/04/20 07:06:28;;;;;;;193.43;30.37;;;;;;;;;;4964651;28;20304;-54
2022/04/20 07:08:54;;;;;;;47.33;8.03;;;;;;;;;;4973577;28;20605;-54
2022/04/20 07:11:20;;;;;;;60.10;10.40;;;;;;;;;;4979650;28;20210;-53
2022/04/20 07:13:46;;;;;;;102.13;16.40;;;;;;;;;;4979166;28;20575;-54
2022/04/20 07:16:13;;;;;;;55.43;10.00;;;;;;;;;;4983517;28;20472;-53
2022/04/20 07:18:39;;;;;;;65.90;10.90;;;;;;;;;;4979071;28;20218;-53
2022/04/20 07:21:05;;;;;;;97.83;15.87;;;;;;;;;;4979141;28;20221;-53
2022/04/20 07:23:31;;;;;;;45.73;8.17;;;;;;;;;;4978531;28;20190;-53
2022/04/20 07:25:57;;;;;;;77.70;12.83;;;;;;;;;;4985011;28;20202;-53
2022/04/20 07:28:23;;;;;;;69.17;11.80;;;;;;;;;;4984334;28;20304;-54
2022/04/20 07:30:49;;;;;;;90.47;15.20;;;;;;;;;;4991454;28;20256;-53
2022/04/20 07:33:15;;;;;;;60.07;10.83;;;;;;;;;;4979914;28;20291;-53
2022/04/20 07:35:43;;;;;;;54.93;10.03;;;;;;;;;;4984144;28;20705;-54
2022/04/20 07:38:09;;;;;;;49.63;9.10;;;;;;;;;;4991419;28;20201;-53
2022/04/20 07:40:35;;;;;;;55.90;9.93;;;;;;;;;;4986236;28;20210;-53
2022/04/20 07:43:01;;;;;;;53.77;9.13;;;;;;;;;;4993064;28;20217;-53
2022/04/20 07:45:27;;;;;;;49.23;8.67;;;;;;;;;;4991042;28;20221;-53
2022/04/20 07:47:54;;;;;;;52.43;9.27;;;;;;;;;;5000417;28;20300;-53
2022/04/20 07:50:23;;;;;;;67.20;11.53;;;;;;;;;;4984707;28;20757;-53
2022/04/20 07:52:50;;;;;;;80.00;13.67;;;;;;;;;;4990606;28;20268;-53
2022/04/20 07:55:17;;;;;;;49.83;9.43;;;;;;;;;;4987610;28;20307;-53
2022/04/20 07:57:43;;;;;;;57.77;11.03;;;;;;;;;;4995510;28;20210;-53
2022/04/20 08:00:09;;;;;;;62.77;11.43;;;;;;;;;;4984640;28;20305;-52
2022/04/20 08:02:35;;;;;;;64.63;12.13;;;;;;;;;;4978235;28;20594;-53
2022/04/20 08:05:01;;;;;;;54.40;9.87;;;;;;;;;;4974377;28;20216;-53
2022/04/20 08:07:27;;;;;;;49.77;9.13;;;;;;;;;;4990295;28;20242;-53
2022/04/20 08:09:54;;;;;;;52.70;9.50;;;;;;;;;;4980294;28;20633;-53
2022/04/20 08:12:20;;;;;;;72.40;12.60;;;;;;;;;;4990041;28;20213;-53
2022/04/20 08:14:46;;;;;;;54.57;9.67;;;;;;;;;;4986627;28;20222;-53
2022/04/20 08:17:11;;;;;;;62.33;11.17;;;;;;;;;;4989803;28;20569;-53
2022/04/20 08:19:38;;;;;;;36.43;6.53;;;;;;;;;;4994323;28;20214;-53
2022/04/20 08:22:04;;;;;;;58.30;10.40;;;;;;;;;;4988273;28;20234;-53
2022/04/20 08:24:30;;;;;;;42.30;7.97;;;;;;;;;;4977304;28;20673;-53
2022/04/20 08:26:56;;;;;;;44.60;8.17;;;;;;;;;;4990394;28;20326;-53
2022/04/20 08:29:22;;;;;;;52.90;9.67;;;;;;;;;;4993951;28;20174;-53
2022/04/20 08:31:48;;;;;;;54.80;9.73;;;;;;;;;;4990575;28;20737;-53
2022/04/20 08:34:14;;;;;;;46.73;8.67;;;;;;;;;;4990477;28;20308;-52
2022/04/20 08:36:40;;;;;;;64.87;11.57;;;;;;;;;;4989363;28;20226;-53
2022/04/20 08:39:06;;;;;;;38.63;7.20;;;;;;;;;;4993456;28;20217;-52
2022/04/20 08:41:32;;;;;;;64.07;11.97;;;;;;;;;;4990369;28;20206;-53
2022/04/20 08:44:00;;;;;;;56.13;9.97;;;;;;;;;;4991033;28;20169;-53
2022/04/20 08:46:27;;;;;;;54.60;9.80;;;;;;;;;;4990331;28;20593;-53
2022/04/20 08:48:53;;;;;;;55.80;10.10;;;;;;;;;;4990545;28;20246;-52
2022/04/20 08:51:19;;;;;;;53.40;9.70;;;;;;;;;;4990161;28;20260;-52
2022/04/20 08:53:45;;;;;;;61.20;10.90;;;;;;;;;;4990876;28;20595;-52
2022/04/20 08:58:57;;;;;;;34.60;6.50;;;;;;;;;;4990837;28;20205;-53
2022/04/20 09:01:27;;;;;;;56.17;9.97;;;;;;;;;;4990196;28;20222;-52
2022/04/20 09:03:54;;;;;;;57.30;10.37;;;;;;;;;;4990418;28;20761;-52
2022/04/20 09:06:20;;;;;;;77.47;13.50;;;;;;;;;;4989541;28;20213;-53
2022/04/20 09:08:46;;;;;;;34.20;6.40;;;;;;;;;;4992100;28;20225;-53
2022/04/20 09:11:12;;;;;;;50.30;9.07;;;;;;;;;;4971754;28;20253;-53
2022/04/20 09:13:41;;;;;;;104.80;17.40;;;;;;;;;;4970362;28;20308;-52
2022/04/20 09:16:07;;;;;;;53.53;9.50;;;;;;;;;;4969135;28;20226;-53
2022/04/20 09:18:33;;;;;;;13.87;2.97;;;;;;;;;;4970827;28;20221;-53
2022/04/20 09:21:06;;;;;;;52.67;8.93;;;;;;;;;;4973473;28;20221;-52
2022/04/20 09:23:33;;;;;;;55.10;9.87;;;;;;;;;;4993777;28;20292;-52
2022/04/20 09:26:06;;;;;;;48.53;8.50;;;;;;;;;;4994422;28;20657;-53
2022/04/20 09:28:32;;;;;;;50.23;8.97;;;;;;;;;;4993797;28;20240;-53
2022/04/20 09:30:58;;;;;;;68.50;11.53;;;;;;;;;;4993571;28;20228;-52
2022/04/20 09:33:40;;;;;;;48.47;8.47;;;;;;;;;;4992925;28;20304;-53
2022/04/20 09:36:06;;;;;;;65.13;11.30;;;;;;;;;;4990412;28;20229;-53
2022/04/20 09:38:35;;;;;;;80.73;14.03;;;;;;;;;;5002982;28;20297;-53
2022/04/20 09:41:08;;;;;;;56.80;9.63;;;;;;;;;;4993853;28;20236;-53
2022/04/20 09:43:34;;;;;;;75.77;12.83;;;;;;;;;;4993442;28;20241;-53
2022/04/20 09:49:05;;;;;;;68.37;11.93;;;;;;;;;;5002022;28;20215;-53
2022/04/20 09:51:38;;;;;;;65.53;11.20;;;;;;;;;;5012046;28;20220;-53
2022/04/20 09:54:04;;;;;;;49.00;8.60;;;;;;;;;;5013300;28;20691;-53
2022/04/20 09:56:32;;;;;;;50.47;9.27;;;;;;;;;;5002009;28;20245;-53
2022/04/20 09:58:59;;;;;;;50.73;8.73;;;;;;;;;;4993652;28;20181;-53
2022/04/20 10:01:27;;;;;;;58.57;10.20;;;;;;;;;;4993162;28;20222;-53
2022/04/20 10:03:54;;;;;;;56.20;9.97;;;;;;;;;;4993273;28;20699;-53
2022/04/20 10:06:20;;;;;;;53.70;9.53;;;;;;;;;;4992998;28;20682;-52
2022/04/20 10:08:45;;;;;;;49.13;8.77;;;;;;;;;;4993110;28;20213;-53
2022/04/20 10:11:13;;;;;;;42.40;7.47;;;;;;;;;;4993954;28;20277;-53
2022/04/20 10:13:39;;;;;;;67.20;11.37;;;;;;;;;;4993133;28;20221;-53
2022/04/20 10:16:08;;;;;;;64.03;11.60;;;;;;;;;;4992509;28;20721;-52
2022/04/20 10:18:37;;;;;;;51.30;9.17;;;;;;;;;;4978427;28;20217;-52
2022/04/20 10:21:03;;;;;;;56.83;9.87;;;;;;;;;;4990153;28;20226;-52
2022/04/20 10:23:29;;;;;;;85.63;14.70;;;;;;;;;;4992842;28;20178;-52
2022/04/20 10:25:56;;;;;;;57.90;10.20;;;;;;;;;;4992117;28;20283;-52
2022/04/20 10:28:28;;;;;;;71.33;12.13;;;;;;;;;;4988584;28;20642;-52
2022/04/20 10:31:09;;;;;;;70.80;12.23;;;;;;;;;;4989509;28;20217;-51
2022/04/20 10:33:38;;;;;;;59.53;10.20;;;;;;;;;;4998939;28;20577;-51
2022/04/20 10:36:09;;;;;;;54.67;9.60;;;;;;;;;;5005770;28;20221;-51
2022/04/20 10:38:35;;;;;;;63.20;11.20;;;;;;;;;;5012506;28;20173;-51
2022/04/20 10:41:14;;;;;;;50.30;8.70;;;;;;;;;;5003611;28;20563;-51
2022/04/20 10:43:42;;;;;;;66.00;10.93;;;;;;;;;;4990798;28;20622;-52
2022/04/20 10:46:11;;;;;;;84.80;14.43;;;;;;;;;;4991565;28;20241;-52
2022/04/20 10:48:53;;;;;;;77.83;13.50;;;;;;;;;;4982451;28;20278;-53
2022/04/20 10:51:22;;;;;;;27.93;5.40;;;;;;;;;;4983722;28;20217;-54
2022/04/20 10:53:49;;;;;;;40.73;7.50;;;;;;;;;;4983426;28;20226;-54
2022/04/20 10:56:18;;;;;;;105.90;18.30;;;;;;;;;;4983907;28;20201;-54
2022/04/20 10:58:54;;;;;;;123.83;20.70;;;;;;;;;;4980261;28;20221;-54
2022/04/20 11:01:20;;;;;;;53.00;9.47;;;;;;;;;;4986414;28;20344;-54
2022/04/20 11:03:58;;;;;;;55.67;10.03;;;;;;;;;;4985675;28;20243;-54
2022/04/20 11:06:27;;;;;;;49.07;9.03;;;;;;;;;;4989891;28;20221;-54
2022/04/20 11:08:53;;;;;;;81.37;14.13;;;;;;;;;;4987970;28;20229;-54
2022/04/20 11:19:49;;;;;;;47.37;8.53;;;;;;;;;;4986529;28;20209;-54
2022/04/20 11:22:15;;;;;;;56.00;10.03;;;;;;;;;;4987628;28;20311;-54
2022/04/20 11:24:41;;;;;;;56.73;10.03;;;;;;;;;;4993441;28;20233;-54
2022/04/20 11:27:08;;;;;;;70.10;12.40;;;;;;;;;;4989834;28;20308;-54
2022/04/20 11:29:34;;;;;;;68.00;12.10;;;;;;;;;;4989539;28;20574;-54
2022/04/20 11:32:00;;;;;;;76.13;13.33;;;;;;;;;;4989931;28;20178;-54
2022/04/20 11:34:27;;;;;;;62.17;10.97;;;;;;;;;;4989373;28;20221;-54
2022/04/20 11:36:55;;;;;;;62.07;10.93;;;;;;;;;;4984697;28;20706;-54
2022/04/20 11:39:22;;;;;;;74.90;13.40;;;;;;;;;;4991597;28;20229;-54
2022/04/20 11:41:52;;;;;;;57.57;10.20;;;;;;;;;;4985269;28;20320;-54
2022/04/20 11:44:41;;;;;;;73.07;12.73;;;;;;;;;;4986611;28;20631;-54
2022/04/20 11:47:09;;;;;;;45.77;8.03;;;;;;;;;;4982714;28;20267;-54
2022/04/20 11:49:40;;;;;;;39.93;7.43;;;;;;;;;;4990487;28;20220;-54
2022/04/20 11:52:07;;;;;;;79.50;13.83;;;;;;;;;;4985154;28;20222;-54
2022/04/20 11:54:34;;;;;;;54.77;9.80;;;;;;;;;;4983005;28;20586;-54
2022/04/20 11:57:00;;;;;;;53.23;9.37;;;;;;;;;;4989555;28;20225;-54
2022/04/20 11:59:28;;;;;;;35.80;6.67;;;;;;;;;;4985430;28;20202;-54
2022/04/20 12:01:55;;;;;;;32.00;6.20;;;;;;;;;;4988156;28;20212;-54
2022/04/20 12:04:25;;;;;;;78.07;13.90;;;;;;;;;;4989137;28;20253;-54
2022/04/20 12:06:56;;;;;;;63.77;11.23;;;;;;;;;;4979760;28;20218;-54
2022/04/20 12:09:24;;;;;;;49.13;8.53;;;;;;;;;;4987645;28;20221;-54
2022/04/20 12:11:54;;;;;;;69.50;12.47;;;;;;;;;;4987032;28;20228;-54
2022/04/20 12:14:20;;;;;;;76.90;13.80;;;;;;;;;;4977506;28;20182;-54
2022/04/20 12:16:47;;;;;;;57.80;10.60;;;;;;;;;;4987512;28;20806;-54
2022/04/20 12:19:13;;;;;;;51.07;9.40;;;;;;;;;;4984395;28;20271;-54
2022/04/20 12:21:41;;;;;;;61.80;11.27;;;;;;;;;;4980037;28;20237;-54
2022/04/20 12:24:12;;;;;;;69.00;12.37;;;;;;;;;;4988456;28;20220;-53
2022/04/20 12:26:42;;;;;;;74.60;13.30;;;;;;;;;;4990128;28;20198;-54
2022/04/20 12:29:08;;;;;;;61.50;11.33;;;;;;;;;;4990215;28;20178;-54
2022/04/20 12:31:34;;;;;;;60.27;11.03;;;;;;;;;;4982429;28;20217;-54
2022/04/20 12:34:01;;;;;;;68.20;12.33;;;;;;;;;;4984428;28;20229;-54
2022/04/20 12:36:29;;;;;;;56.63;10.20;;;;;;;;;;4982682;28;20729;-54
2022/04/20 12:38:55;;;;;;;61.33;10.83;;;;;;;;;;4990334;28;20260;-54
2022/04/20 12:41:38;;;;;;;14.80;3.33;;;;;;;;;;4993993;28;20292;-54
2022/04/20 12:44:22;;;;;;;72.30;12.73;;;;;;;;;;5005610;28;20538;-53
2022/04/20 12:46:48;;;;;;;55.27;10.30;;;;;;;;;;4987907;28;20221;-53
2022/04/20 12:49:24;;;;;;;46.43;8.50;;;;;;;;;;4993883;28;20576;-53
2022/04/20 12:51:51;;;;;;;83.10;14.67;;;;;;;;;;4998834;28;20712;-53
2022/04/20 12:54:26;;;;;;;52.53;9.60;;;;;;;;;;4989044;28;20285;-54
2022/04/20 13:02:22;;;;;;;59.23;10.87;;;;;;;;;;4984443;28;20215;-53
2022/04/20 13:04:48;;;;;;;59.77;10.87;;;;;;;;;;4989836;28;20288;-53
2022/04/20 13:07:14;;;;;;;57.93;10.50;;;;;;;;;;4989684;28;20627;-53
2022/04/20 13:09:40;;;;;;;55.57;10.20;;;;;;;;;;4990372;28;20217;-53
2022/04/20 13:12:07;;;;;;;53.23;10.07;;;;;;;;;;4999727;28;20216;-54
2022/04/20 13:14:33;;;;;;;50.67;9.27;;;;;;;;;;4996335;28;20185;-54
2022/04/20 13:16:59;;;;;;;55.17;9.87;;;;;;;;;;4990025;28;20276;-53
2022/04/20 13:19:24;;;;;;;51.90;9.57;;;;;;;;;;4996026;28;20228;-53
2022/04/20 13:21:50;;;;;;;59.50;11.13;;;;;;;;;;5000339;28;20653;-54
2022/04/20 13:27:54;;;;;;;26.10;5.10;;;;;;;;;;4990185;28;20201;-54
2022/04/20 13:29:47;;;;;;;56.47;10.37;;;;;;;;;;4990124;28;20756;-54
2022/04/20 13:32:14;;;;;;;31.53;6.13;;;;;;;;;;4990727;28;20185;-53
2022/04/20 13:34:40;;;;;;;45.87;8.43;;;;;;;;;;4989556;28;20722;-53
2022/04/20 13:37:06;;;;;;;44.83;8.43;;;;;;;;;;4989354;28;20217;-53
2022/04/20 13:39:32;;;;;;;15.73;3.30;;;;;;;;;;4989941;28;20736;-54
2022/04/20 13:41:58;;;;;;;71.50;13.03;;;;;;;;;;4992736;28;20248;-54
2022/04/20 13:44:24;;;;;;;29.80;6.00;;;;;;;;;;5009730;28;20193;-53
2022/04/20 13:46:50;;;;;;;43.83;8.43;;;;;;;;;;5009928;28;20197;-53
2022/04/20 13:49:16;;;;;;;48.13;9.33;;;;;;;;;;5009573;28;20662;-54
2022/04/20 13:51:42;;;;;;;53.73;10.50;;;;;;;;;;4994085;28;20316;-54
2022/04/20 13:54:08;;;;;;;41.70;8.23;;;;;;;;;;4989978;28;20210;-54
2022/04/20 13:56:34;;;;;;;41.53;8.23;;;;;;;;;;4989327;28;20198;-53
2022/04/20 13:59:01;;;;;;;25.73;5.30;;;;;;;;;;4990355;28;20177;-53
2022/04/20 14:01:27;;;;;;;55.83;10.57;;;;;;;;;;4996365;28;20241;-54
2022/04/20 14:03:53;;;;;;;51.63;9.83;;;;;;;;;;4994322;28;20288;-54
2022/04/20 14:06:19;;;;;;;54.47;10.33;;;;;;;;;;4988435;28;20255;-54
2022/04/20 14:08:45;;;;;;;39.17;7.43;;;;;;;;;;4992488;28;20259;-54
2022/04/20 14:11:11;;;;;;;58.93;10.90;;;;;;;;;;4993037;28;20190;-54
2022/04/20 14:13:39;;;;;;;60.13;11.07;;;;;;;;;;4995158;28;20276;-54
2022/04/20 14:16:05;;;;;;;63.10;12.17;;;;;;;;;;4985373;28;20236;-53
2022/04/20 14:18:31;;;;;;;36.43;7.20;;;;;;;;;;4994686;28;20221;-54
2022/04/20 14:20:57;;;;;;;66.83;13.13;;;;;;;;;;4992178;28;20232;-54
2022/04/20 14:23:23;;;;;;;53.07;10.37;;;;;;;;;;4993229;28;20173;-54
2022/04/20 14:34:08;;;;;;;52.77;10.57;;;;;;;;;;4991843;28;20783;-53
2022/04/20 14:36:35;;;;;;;60.60;11.57;;;;;;;;;;4986421;28;20228;-54
2022/04/20 14:39:02;;;;;;;109.53;19.77;;;;;;;;;;4990644;28;20217;-53
2022/04/20 14:41:28;;;;;;;40.17;8.30;;;;;;;;;;4984593;28;20228;-53
2022/04/20 14:43:54;;;;;;;48.90;9.80;;;;;;;;;;4991680;28;20181;-53
2022/04/20 14:46:19;;;;;;;58.43;11.33;;;;;;;;;;4990992;28;20225;-54
2022/04/20 14:48:46;;;;;;;75.60;14.30;;;;;;;;;;4990215;28;20233;-54
2022/04/20 14:51:12;;;;;;;74.80;14.80;;;;;;;;;;4989764;28;20209;-54
2022/04/20 14:53:38;;;;;;;64.83;13.37;;;;;;;;;;4991125;28;20182;-53
2022/04/20 14:56:04;;;;;;;42.70;8.80;;;;;;;;;;4992220;28;20213;-53
2022/04/20 14:58:30;;;;;;;45.00;9.37;;;;;;;;;;4988792;28;20209;-54
2022/04/20 15:00:56;;;;;;;67.77;13.20;;;;;;;;;;4986704;28;20674;-54
2022/04/20 15:03:22;;;;;;;50.67;10.37;;;;;;;;;;4991262;28;20688;-53
2022/04/20 15:05:48;;;;;;;62.23;12.90;;;;;;;;;;4989382;28;20241;-54